createdAt,value
2022-08-10T00:00:08.995Z,18.85
2022-08-10T00:02:35.699Z,18.80
2022-08-10T00:05:02.439Z,18.77
2022-08-10T00:07:28.933Z,18.74
2022-08-10T00:09:55.612Z,18.68
2022-08-10T00:12:22.207Z,18.67
2022-08-10T00:15:10.523Z,18.60
2022-08-10T00:17:56.983Z,18.55
2022-08-10T00:20:23.505Z,18.49
2022-08-10T00:22:57.276Z,18.46
2022-08-10T00:25:24.160Z,18.42
2022-08-10T00:28:03.331Z,18.38
2022-08-10T00:30:30.330Z,18.34
2022-08-10T00:32:56.750Z,18.30
2022-08-10T00:35:23.226Z,18.29
2022-08-10T00:37:56.469Z,18.24
2022-08-10T00:40:35.218Z,18.19
2022-08-10T00:43:04.711Z,18.14
2022-08-10T00:45:31.184Z,18.06
2022-08-10T00:47:57.958Z,18.00
2022-08-10T00:50:24.669Z,17.99
2022-08-10T00:52:51.470Z,17.97
2022-08-10T00:55:19.742Z,17.98
2022-08-10T00:57:55.422Z,17.95
2022-08-10T01:00:23.209Z,17.92
2022-08-10T01:02:49.861Z,17.89
2022-08-10T01:05:16.623Z,17.86
2022-08-10T01:07:53.235Z,17.79
2022-08-10T01:10:32.951Z,17.77
2022-08-10T01:13:41.013Z,17.76
2022-08-10T01:16:17.871Z,17.73
2022-08-10T01:18:56.355Z,17.67
2022-08-10T01:22:00.371Z,17.62
2022-08-10T01:24:40.697Z,17.58
2022-08-10T01:27:36.909Z,17.54
2022-08-10T01:30:14.753Z,17.53
2022-08-10T01:32:59.220Z,17.49
2022-08-10T01:35:49.939Z,17.46
2022-08-10T01:38:24.539Z,17.43
2022-08-10T01:41:01.617Z,17.39
2022-08-10T01:43:30.511Z,17.34
2022-08-10T01:45:59.551Z,17.28
2022-08-10T01:48:31.472Z,17.25
2022-08-10T01:51:14.367Z,17.19
2022-08-10T01:53:52.094Z,17.14
2022-08-10T01:56:24.991Z,17.11
2022-08-10T01:58:59.743Z,17.03
2022-08-10T02:01:29.613Z,16.98
2022-08-10T02:04:04.523Z,16.94
2022-08-10T02:06:36.976Z,16.92
2022-08-10T02:09:07.171Z,16.87
2022-08-10T02:12:05.455Z,16.82
2022-08-10T02:14:33.271Z,16.83
2022-08-10T02:17:03.694Z,16.80
2022-08-10T02:19:33.228Z,16.81
2022-08-10T02:22:34.924Z,16.79
2022-08-10T02:24:48.812Z,16.73
2022-08-10T02:27:16.230Z,16.69
2022-08-10T02:29:45.036Z,16.69
2022-08-10T02:32:28.917Z,16.66
2022-08-10T02:35:05.941Z,16.64
2022-08-10T02:37:37.419Z,16.61
2022-08-10T02:40:04.518Z,16.60
2022-08-10T02:45:23.255Z,16.58
2022-08-10T02:45:50.073Z,16.54
2022-08-10T02:48:21.343Z,16.53
2022-08-10T02:51:01.826Z,16.48
2022-08-10T02:53:54.609Z,16.44
2022-08-10T02:56:35.073Z,16.41
2022-08-10T02:59:17.501Z,16.38
2022-08-10T03:01:48.060Z,16.39
2022-08-10T03:04:57.206Z,16.38
2022-08-10T03:07:15.187Z,16.37
2022-08-10T03:09:43.105Z,16.34
2022-08-10T03:12:35.859Z,16.33
2022-08-10T03:15:00.074Z,16.29
2022-08-10T03:17:28.273Z,16.25
2022-08-10T03:20:34.273Z,16.21
2022-08-10T03:22:45.046Z,16.18
2022-08-10T03:25:12.921Z,16.16
2022-08-10T03:27:42.647Z,16.13
2022-08-10T03:30:28.728Z,16.10
2022-08-10T03:32:58.900Z,16.06
2022-08-10T03:35:26.369Z,16.06
2022-08-10T03:37:59.146Z,16.01
2022-08-10T03:40:46.008Z,15.96
2022-08-10T03:43:19.309Z,15.95
2022-08-10T03:45:54.735Z,15.93
2022-08-10T03:48:22.519Z,15.92
2022-08-10T03:50:51.909Z,15.91
2022-08-10T03:54:02.459Z,15.87
2022-08-10T03:56:26.991Z,15.82
2022-08-10T03:58:53.451Z,15.78
2022-08-10T04:01:21.070Z,15.79
2022-08-10T04:04:13.737Z,15.76
2022-08-10T04:06:41.928Z,15.71
2022-08-10T04:09:09.537Z,15.65
2022-08-10T04:11:37.020Z,15.62
2022-08-10T04:14:07.102Z,15.60
2022-08-10T04:16:53.684Z,15.55
2022-08-10T04:19:21.950Z,15.52
2022-08-10T04:22:00.022Z,15.52
2022-08-10T04:24:31.898Z,15.51
2022-08-10T04:27:01.118Z,15.51
2022-08-10T04:29:28.219Z,15.50
2022-08-10T04:31:54.844Z,15.47
2022-08-10T04:34:23.040Z,15.49
2022-08-10T04:36:52.162Z,15.49
2022-08-10T04:39:19.618Z,15.52
2022-08-10T04:41:47.575Z,15.53
2022-08-10T04:44:14.409Z,15.50
2022-08-10T04:46:43.069Z,15.51
2022-08-10T04:49:56.423Z,15.50
2022-08-10T04:52:10.682Z,15.52
2022-08-10T04:54:37.135Z,15.54
2022-08-10T04:57:03.928Z,15.57
2022-08-10T04:59:30.394Z,15.56
2022-08-10T05:02:29.067Z,15.59
2022-08-10T05:04:43.316Z,15.59
2022-08-10T05:07:16.915Z,15.56
2022-08-10T05:10:02.276Z,15.59
2022-08-10T05:12:37.959Z,15.63
2022-08-10T05:15:10.895Z,15.68
2022-08-10T05:17:38.968Z,15.72
2022-08-10T05:20:08.255Z,15.76
2022-08-10T05:22:37.740Z,15.78
2022-08-10T05:25:06.173Z,15.84
2022-08-10T05:27:33.590Z,15.90
2022-08-10T05:30:01.448Z,15.95
2022-08-10T05:32:29.281Z,16.04
2022-08-10T05:34:55.806Z,16.09
2022-08-10T05:38:09.660Z,16.21
2022-08-10T05:40:10.796Z,16.35
2022-08-10T05:42:38.107Z,16.44
2022-08-10T05:45:05.002Z,16.58
2022-08-10T05:48:57.587Z,16.77
2022-08-10T05:50:22.269Z,16.89
2022-08-10T05:52:48.892Z,17.14
2022-08-10T05:55:17.371Z,17.54
2022-08-10T05:57:45.258Z,18.20
2022-08-10T06:00:39.747Z,19.04
2022-08-10T06:03:05.041Z,19.87
2022-08-10T06:05:34.933Z,20.65
2022-08-10T06:08:12.410Z,20.78
2022-08-10T06:12:24.725Z,19.95
2022-08-10T06:13:59.676Z,18.98
2022-08-10T06:16:33.308Z,18.30
2022-08-10T06:19:02.005Z,18.04
2022-08-10T06:21:28.511Z,17.84
2022-08-10T06:23:55.384Z,17.79
2022-08-10T06:26:22.488Z,17.82
2022-08-10T06:29:03.772Z,17.81
2022-08-10T06:31:46.665Z,17.71
2022-08-10T06:34:25.943Z,17.72
2022-08-10T06:36:55.003Z,17.80
2022-08-10T06:39:33.558Z,17.84
2022-08-10T06:42:16.288Z,17.91
2022-08-10T06:45:00.675Z,17.97
2022-08-10T06:47:37.409Z,18.05
2022-08-10T06:50:12.387Z,18.11
2022-08-10T06:52:40.665Z,18.11
2022-08-10T06:55:12.405Z,18.18
2022-08-10T06:57:44.604Z,18.23
2022-08-10T07:00:33.346Z,18.35
2022-08-10T07:03:07.113Z,18.41
2022-08-10T07:05:38.233Z,18.49
2022-08-10T07:08:05.850Z,18.63
2022-08-10T07:10:46.025Z,18.80
2022-08-10T07:13:16.385Z,18.98
2022-08-10T07:16:04.041Z,19.03
2022-08-10T07:18:32.519Z,19.00
2022-08-10T07:21:01.960Z,19.00
2022-08-10T07:23:58.583Z,19.14
2022-08-10T07:26:18.883Z,19.29
2022-08-10T07:28:48.239Z,19.41
2022-08-10T07:31:55.495Z,19.39
2022-08-10T07:34:09.463Z,19.40
2022-08-10T07:36:39.367Z,19.46
2022-08-10T07:39:07.461Z,19.63
2022-08-10T07:41:35.319Z,19.58
2022-08-10T07:44:05.346Z,19.64
2022-08-10T07:46:34.986Z,19.79
2022-08-10T07:49:17.017Z,19.95
2022-08-10T07:51:54.384Z,20.08
2022-08-10T07:54:23.862Z,20.14
2022-08-10T07:56:53.469Z,20.29
2022-08-10T07:59:31.121Z,20.44
2022-08-10T08:02:00.951Z,20.39
2022-08-10T08:04:29.600Z,20.43
2022-08-10T08:06:59.045Z,20.57
2022-08-10T08:09:26.860Z,20.55
2022-08-10T08:11:54.728Z,20.64
2022-08-10T08:14:22.605Z,20.69
2022-08-10T08:16:52.060Z,20.84
2022-08-10T08:19:28.523Z,21.05
2022-08-10T08:24:09.880Z,21.16
2022-08-10T08:24:52.234Z,21.24
2022-08-10T08:27:19.988Z,21.37
2022-08-10T08:29:48.081Z,21.50
2022-08-10T08:32:36.864Z,21.56
2022-08-10T08:35:07.339Z,21.68
2022-08-10T08:38:30.236Z,21.80
2022-08-10T08:40:32.742Z,22.00
2022-08-10T08:43:21.517Z,22.09
2022-08-10T08:46:18.882Z,22.29
2022-08-10T08:49:06.133Z,22.35
2022-08-10T08:52:07.299Z,22.49
2022-08-10T08:55:03.993Z,22.58
2022-08-10T08:58:27.916Z,22.64
2022-08-10T09:01:13.392Z,22.61
2022-08-10T09:04:22.812Z,22.59
2022-08-10T09:07:59.134Z,22.79
2022-08-10T09:10:20.985Z,22.91
2022-08-10T09:13:04.888Z,23.05
2022-08-10T09:15:44.719Z,23.23
2022-08-10T09:18:21.806Z,23.28
2022-08-10T09:20:55.845Z,23.39
2022-08-10T09:24:05.401Z,23.44
2022-08-10T09:26:20.527Z,23.58
2022-08-10T09:29:11.877Z,23.67
2022-08-10T09:33:05.413Z,23.80
2022-08-10T09:36:20.306Z,23.92
2022-08-10T09:38:02.144Z,24.09
2022-08-10T09:41:01.302Z,24.16
2022-08-10T09:43:38.627Z,24.16
2022-08-10T09:46:14.187Z,24.16
2022-08-10T09:48:54.417Z,24.21
2022-08-10T09:51:46.762Z,24.35
2022-08-10T09:54:17.610Z,24.51
2022-08-10T09:57:24.373Z,24.63
2022-08-10T10:00:02.716Z,24.77
2022-08-10T10:03:06.442Z,24.91
2022-08-10T10:05:58.145Z,24.97
2022-08-10T10:08:46.291Z,25.03
2022-08-10T10:11:19.613Z,25.19
2022-08-10T10:14:04.395Z,25.26
2022-08-10T10:17:03.351Z,25.33
2022-08-10T10:19:48.422Z,25.46
2022-08-10T10:22:26.039Z,25.59
2022-08-10T10:25:18.203Z,25.67
2022-08-10T10:28:02.043Z,25.77
2022-08-10T10:30:36.393Z,25.94
2022-08-10T10:33:13.318Z,25.96
2022-08-10T10:35:55.836Z,26.04
2022-08-10T10:38:29.707Z,26.12
2022-08-10T10:41:26.913Z,26.17
2022-08-10T10:44:31.970Z,26.28
2022-08-10T10:47:28.460Z,26.43
2022-08-10T10:50:15.334Z,26.49
2022-08-10T10:53:24.459Z,26.59
2022-08-10T10:56:14.891Z,26.65
2022-08-10T10:59:54.616Z,26.75
2022-08-10T11:02:18.274Z,26.83
2022-08-10T11:05:15.390Z,26.90
2022-08-10T11:08:01.085Z,26.94
2022-08-10T11:10:52.811Z,27.04
2022-08-10T11:14:25.042Z,27.08
2022-08-10T11:16:21.815Z,27.17
2022-08-10T11:19:15.808Z,27.26
2022-08-10T11:22:00.676Z,27.29
2022-08-10T11:25:08.335Z,27.35
2022-08-10T11:27:48.801Z,27.41
2022-08-10T11:30:20.322Z,27.47
2022-08-10T11:33:03.059Z,27.58
2022-08-10T11:35:47.349Z,27.57
2022-08-10T11:38:42.814Z,27.66
2022-08-10T11:42:10.368Z,27.71
2022-08-10T11:44:13.431Z,27.76
2022-08-10T11:46:53.459Z,27.79
2022-08-10T11:49:31.354Z,27.90
2022-08-10T11:52:08.856Z,28.00
2022-08-10T11:54:43.175Z,28.09
2022-08-10T11:57:11.730Z,28.08
2022-08-10T11:59:59.521Z,28.12
2022-08-10T12:02:29.510Z,28.17
2022-08-10T12:05:02.700Z,28.24
2022-08-10T12:10:07.418Z,28.31
2022-08-10T12:10:21.645Z,28.38
2022-08-10T12:13:00.718Z,28.47
2022-08-10T12:15:35.650Z,28.55
2022-08-10T12:18:12.502Z,28.60
2022-08-10T12:20:43.789Z,28.66
2022-08-10T12:23:32.428Z,28.75
2022-08-10T12:26:13.727Z,28.77
2022-08-10T12:28:53.841Z,28.92
2022-08-10T12:32:04.190Z,29.05
2022-08-10T12:34:37.786Z,29.09
2022-08-10T12:37:26.770Z,29.15
2022-08-10T12:40:33.797Z,29.04
2022-08-10T12:43:13.269Z,29.05
2022-08-10T12:46:13.438Z,29.10
2022-08-10T12:48:50.485Z,29.19
2022-08-10T12:51:28.935Z,29.19
2022-08-10T12:54:16.625Z,29.24
2022-08-10T12:57:07.662Z,29.27
2022-08-10T12:59:43.350Z,29.40
2022-08-10T13:02:14.815Z,29.44
2022-08-10T13:04:43.112Z,29.54
2022-08-10T13:07:10.256Z,29.55
2022-08-10T13:10:05.411Z,29.57
2022-08-10T13:12:44.358Z,29.69
2022-08-10T13:15:49.646Z,29.74
2022-08-10T13:18:25.471Z,29.78
2022-08-10T13:20:54.920Z,29.78
2022-08-10T13:23:26.829Z,29.71
2022-08-10T13:25:56.654Z,29.70
2022-08-10T13:28:37.880Z,29.79
2022-08-10T13:31:11.281Z,29.90
2022-08-10T13:34:41.522Z,29.99
2022-08-10T13:36:36.599Z,30.05
2022-08-10T13:39:06.396Z,30.05
2022-08-10T13:41:39.733Z,30.09
2022-08-10T13:44:08.105Z,30.15
2022-08-10T13:46:37.916Z,30.24
2022-08-10T13:49:07.031Z,30.21
2022-08-10T13:51:53.658Z,30.20
2022-08-10T13:54:36.037Z,30.28
2022-08-10T13:57:03.521Z,30.27
2022-08-10T14:00:37.791Z,30.37
2022-08-10T14:02:26.965Z,30.38
2022-08-10T14:04:55.710Z,30.40
2022-08-10T14:07:23.904Z,30.42
2022-08-10T14:09:53.221Z,30.46
2022-08-10T14:12:41.184Z,30.44
2022-08-10T14:15:13.296Z,30.35
2022-08-10T14:17:44.957Z,30.28
2022-08-10T14:20:16.805Z,30.41
2022-08-10T14:22:46.014Z,30.42
2022-08-10T14:25:14.873Z,30.47
2022-08-10T14:28:03.295Z,30.48
2022-08-10T14:30:31.769Z,30.58
2022-08-10T14:33:03.930Z,30.65
2022-08-10T14:36:20.606Z,30.66
2022-08-10T14:38:22.673Z,30.66
2022-08-10T14:40:54.139Z,30.66
2022-08-10T14:43:35.381Z,30.75
2022-08-10T14:46:11.115Z,30.82
2022-08-10T14:48:43.194Z,30.90
2022-08-10T14:51:12.792Z,30.85
2022-08-10T14:53:44.321Z,30.93
2022-08-10T14:56:17.324Z,30.97
2022-08-10T14:58:59.167Z,30.99
2022-08-10T15:02:38.492Z,31.07
2022-08-10T15:04:24.680Z,31.06
2022-08-10T15:06:59.765Z,31.07
2022-08-10T15:10:00.515Z,31.04
2022-08-10T15:12:24.910Z,31.01
2022-08-10T15:14:58.360Z,30.98
2022-08-10T15:17:30.311Z,30.98
2022-08-10T15:20:13.570Z,30.95
2022-08-10T15:22:50.929Z,31.03
2022-08-10T15:25:25.434Z,31.07
2022-08-10T15:28:08.193Z,31.14
2022-08-10T15:30:42.869Z,31.07
2022-08-10T15:34:02.743Z,31.18
2022-08-10T15:36:41.729Z,31.30
2022-08-10T15:39:17.308Z,31.21
2022-08-10T15:42:00.782Z,31.13
2022-08-10T15:44:36.619Z,31.13
2022-08-10T15:47:07.945Z,31.20
2022-08-10T15:49:50.208Z,31.29
2022-08-10T15:52:40.057Z,31.31
2022-08-10T15:55:42.432Z,31.12
2022-08-10T15:58:19.767Z,31.20
2022-08-10T16:01:00.113Z,31.32
2022-08-10T16:03:39.339Z,31.36
2022-08-10T16:06:06.988Z,31.33
2022-08-10T16:08:56.513Z,31.35
2022-08-10T16:11:27.968Z,31.43
2022-08-10T16:14:13.485Z,31.43
2022-08-10T16:16:41.860Z,31.43
2022-08-10T16:19:23.749Z,31.30
2022-08-10T16:22:01.086Z,31.22
2022-08-10T16:24:35.770Z,31.32
2022-08-10T16:27:07.359Z,31.51
2022-08-10T16:29:56.419Z,31.55
2022-08-10T16:32:25.353Z,31.68
2022-08-10T16:34:53.759Z,31.80
2022-08-10T16:37:21.561Z,31.78
2022-08-10T16:39:59.795Z,31.80
2022-08-10T16:42:31.027Z,31.73
2022-08-10T16:45:24.081Z,31.61
2022-08-10T16:47:52.839Z,31.75
2022-08-10T16:50:32.853Z,32.06
2022-08-10T16:53:02.410Z,32.31
2022-08-10T16:55:48.926Z,32.63
2022-08-10T16:58:20.815Z,33.00
2022-08-10T17:00:49.893Z,33.10
2022-08-10T17:03:22.914Z,33.11
2022-08-10T17:06:12.049Z,33.22
2022-08-10T17:08:48.681Z,33.30
2022-08-10T17:11:17.224Z,33.44
2022-08-10T17:13:43.988Z,33.53
2022-08-10T17:16:13.581Z,33.70
2022-08-10T17:18:46.553Z,33.95
2022-08-10T17:21:22.630Z,34.08
2022-08-10T17:23:52.879Z,34.26
2022-08-10T17:26:35.590Z,34.18
2022-08-10T17:29:59.050Z,34.23
2022-08-10T17:32:19.813Z,34.25
2022-08-10T17:34:50.305Z,34.12
2022-08-10T17:37:20.435Z,34.12
2022-08-10T17:39:51.964Z,34.06
2022-08-10T17:42:21.855Z,33.91
2022-08-10T17:44:51.052Z,33.41
2022-08-10T17:47:19.177Z,32.96
2022-08-10T17:49:47.091Z,32.59
2022-08-10T17:52:20.023Z,32.28
2022-08-10T17:54:54.211Z,32.23
2022-08-10T17:57:22.741Z,31.79
2022-08-10T17:59:51.458Z,31.41
2022-08-10T18:02:23.231Z,31.03
2022-08-10T18:04:56.580Z,30.91
2022-08-10T18:07:31.485Z,30.64
2022-08-10T18:10:00.274Z,30.35
2022-08-10T18:12:37.956Z,30.17
2022-08-10T18:15:11.931Z,30.03
2022-08-10T18:17:43.563Z,29.83
2022-08-10T18:20:11.607Z,29.67
2022-08-10T18:22:43.972Z,29.46
2022-08-10T18:25:17.513Z,29.28
2022-08-10T18:28:00.190Z,29.16
2022-08-10T18:30:32.988Z,29.04
2022-08-10T18:33:04.534Z,28.94
2022-08-10T18:35:34.861Z,28.82
2022-08-10T18:38:03.929Z,28.72
2022-08-10T18:40:36.600Z,28.64
2022-08-10T18:44:02.867Z,28.50
2022-08-10T18:45:56.963Z,28.40
2022-08-10T18:48:27.906Z,28.27
2022-08-10T18:50:57.507Z,28.22
2022-08-10T18:53:37.213Z,28.15
2022-08-10T18:56:18.769Z,28.06
2022-08-10T18:58:51.419Z,27.94
2022-08-10T19:01:49.827Z,27.83
2022-08-10T19:04:42.826Z,27.78
2022-08-10T19:07:35.160Z,27.68
2022-08-10T19:10:27.666Z,27.60
2022-08-10T19:13:16.079Z,27.48
2022-08-10T19:15:46.732Z,27.39
2022-08-10T19:18:37.686Z,27.32
2022-08-10T19:21:27.325Z,27.23
2022-08-10T19:24:34.944Z,27.14
2022-08-10T19:27:19.560Z,26.99
2022-08-10T19:30:11.728Z,26.84
2022-08-10T19:33:14.389Z,26.72
2022-08-10T19:36:03.305Z,26.60
2022-08-10T19:39:03.320Z,26.49
2022-08-10T19:41:44.618Z,26.38
2022-08-10T19:44:51.202Z,26.28
2022-08-10T19:47:30.400Z,26.17
2022-08-10T19:50:05.710Z,26.07
2022-08-10T19:53:02.119Z,26.01
2022-08-10T19:55:33.162Z,25.89
2022-08-10T19:58:16.893Z,25.77
2022-08-10T20:01:02.314Z,25.71
2022-08-10T20:03:56.640Z,25.59
2022-08-10T20:06:47.294Z,25.50
2022-08-10T20:09:47.343Z,25.35
2022-08-10T20:12:43.402Z,25.23
2022-08-10T20:15:17.737Z,25.14
2022-08-10T20:17:55.721Z,25.09
2022-08-10T20:20:37.534Z,25.03
2022-08-10T20:23:19.105Z,24.95
2022-08-10T20:26:00.611Z,24.85
2022-08-10T20:28:42.501Z,24.79
2022-08-10T20:31:23.551Z,24.74
2022-08-10T20:34:01.366Z,24.64
2022-08-10T20:36:36.917Z,24.58
2022-08-10T20:39:31.354Z,24.51
2022-08-10T20:42:12.887Z,24.42
2022-08-10T20:44:58.932Z,24.35
2022-08-10T20:47:54.574Z,24.28
2022-08-10T20:50:42.858Z,24.21
2022-08-10T20:53:18.656Z,24.14
2022-08-10T20:55:47.002Z,24.06
2022-08-10T20:58:45.307Z,23.99
2022-08-10T21:01:22.908Z,23.94
2022-08-10T21:04:07.781Z,23.86
2022-08-10T21:06:48.969Z,23.81
2022-08-10T21:09:42.539Z,23.78
2022-08-10T21:12:29.429Z,23.74
2022-08-10T21:15:08.000Z,23.69
2022-08-10T21:17:50.114Z,23.62
2022-08-10T21:20:47.524Z,23.55
2022-08-10T21:23:24.823Z,23.46
2022-08-10T21:26:15.865Z,23.39
2022-08-10T21:29:06.764Z,23.33
2022-08-10T21:31:51.224Z,23.25
2022-08-10T21:34:33.804Z,23.22
2022-08-10T21:37:07.858Z,23.15
2022-08-10T21:39:46.859Z,23.13
2022-08-10T21:42:57.173Z,23.06
2022-08-10T21:46:00.420Z,23.02
2022-08-10T21:48:57.103Z,22.97
2022-08-10T21:52:03.882Z,22.92
2022-08-10T21:55:01.128Z,22.87
2022-08-10T21:57:58.616Z,22.79
2022-08-10T22:00:49.406Z,22.79
2022-08-10T22:03:39.435Z,22.73
2022-08-10T22:06:27.950Z,22.67
2022-08-10T22:09:21.556Z,22.62
2022-08-10T22:12:24.846Z,22.58
2022-08-10T22:15:24.101Z,22.57
2022-08-10T22:18:32.939Z,22.55
2022-08-10T22:21:45.184Z,22.47
2022-08-10T22:24:49.763Z,22.39
2022-08-10T22:27:53.940Z,22.30
2022-08-10T22:30:42.785Z,22.28
2022-08-10T22:33:59.282Z,22.24
2022-08-10T22:36:59.735Z,22.18
2022-08-10T22:40:11.266Z,22.11
2022-08-10T22:43:10.848Z,22.03
2022-08-10T22:46:06.471Z,21.96
2022-08-10T22:49:02.091Z,21.91
2022-08-10T22:51:38.085Z,21.89
2022-08-10T22:54:30.912Z,21.89
2022-08-10T22:57:18.678Z,21.86
2022-08-10T22:59:45.436Z,21.84
2022-08-10T23:02:18.252Z,21.82
2022-08-10T23:04:50.648Z,21.79
2022-08-10T23:07:17.084Z,21.78
2022-08-10T23:09:46.075Z,21.73
2022-08-10T23:12:22.320Z,21.69
2022-08-10T23:15:11.779Z,21.68
2022-08-10T23:18:01.368Z,21.62
2022-08-10T23:20:30.321Z,21.58
2022-08-10T23:23:04.709Z,21.55
2022-08-10T23:25:39.325Z,21.51
2022-08-10T23:28:38.610Z,21.47
2022-08-10T23:31:13.264Z,21.44
2022-08-10T23:33:41.845Z,21.41
2022-08-10T23:36:33.764Z,21.35
2022-08-10T23:39:26.016Z,21.28
2022-08-10T23:41:53.706Z,21.25
2022-08-10T23:44:22.631Z,21.19
2022-08-10T23:46:50.060Z,21.12
2022-08-10T23:49:18.997Z,21.07
2022-08-10T23:51:55.340Z,21.00
2022-08-10T23:54:23.951Z,20.97
2022-08-10T23:56:56.569Z,20.89
2022-08-10T23:59:29.165Z,20.84
